createdAt,value
2018-04-01T00:02:24.361Z,3.00
2018-04-01T00:04:51.376Z,3.00
2018-04-01T00:07:18.787Z,3.10
2018-04-01T00:09:46.816Z,3.10
2018-04-01T00:12:13.852Z,3.10
2018-04-01T00:14:42.841Z,3.10
2018-04-01T00:17:10.259Z,3.10
2018-04-01T00:19:37.296Z,3.10
2018-04-01T00:22:04.313Z,3.10
2018-04-01T00:24:31.339Z,3.10
2018-04-01T00:26:58.373Z,3.10
2018-04-01T00:29:25.837Z,3.10
2018-04-01T00:31:52.835Z,3.10
2018-04-01T00:34:19.870Z,3.10
2018-04-01T00:36:46.903Z,3.10
2018-04-01T00:39:13.898Z,3.10
2018-04-01T00:41:40.935Z,3.10
2018-04-01T00:44:07.937Z,3.10
2018-04-01T00:46:34.959Z,3.10
2018-04-01T00:49:02.373Z,3.10
2018-04-01T00:51:29.407Z,3.10
2018-04-01T00:53:56.410Z,3.00
2018-04-01T00:56:23.427Z,3.00
2018-04-01T00:58:50.464Z,3.00
2018-04-01T01:01:17.474Z,3.00
2018-04-01T01:03:44.492Z,3.00
2018-04-01T01:06:11.541Z,3.00
2018-04-01T01:08:39.611Z,3.00
2018-04-01T01:11:06.640Z,3.00
2018-04-01T01:13:33.733Z,3.00
2018-04-01T01:16:00.739Z,3.00
2018-04-01T01:18:27.741Z,2.90
2018-04-01T01:20:54.774Z,2.90
2018-04-01T01:23:21.804Z,2.90
2018-04-01T01:25:48.837Z,2.90
2018-04-01T01:28:16.270Z,2.90
2018-04-01T01:30:43.367Z,2.90
2018-04-01T01:33:10.370Z,2.90
2018-04-01T01:35:37.798Z,2.80
2018-04-01T01:38:04.825Z,2.80
2018-04-01T01:40:31.843Z,2.80
2018-04-01T01:42:58.851Z,2.80
2018-04-01T01:45:25.876Z,2.80
2018-04-01T01:47:52.916Z,2.80
2018-04-01T01:50:19.917Z,2.80
2018-04-01T01:52:47.335Z,2.70
2018-04-01T01:55:14.392Z,2.70
2018-04-01T01:57:41.407Z,2.70
2018-04-01T02:00:08.425Z,2.70
2018-04-01T02:02:35.432Z,2.70
2018-04-01T02:05:02.468Z,2.70
2018-04-01T02:07:29.531Z,2.70
2018-04-01T02:09:56.637Z,2.70
2018-04-01T02:12:24.078Z,2.70
2018-04-01T02:14:51.124Z,2.60
2018-04-01T02:17:18.143Z,2.60
2018-04-01T02:19:45.560Z,2.60
2018-04-01T02:22:12.612Z,2.60
2018-04-01T02:24:39.625Z,2.70
2018-04-01T02:27:06.647Z,2.60
2018-04-01T02:29:33.688Z,2.60
2018-04-01T02:32:01.112Z,2.70
2018-04-01T02:34:28.175Z,2.70
2018-04-01T02:36:55.587Z,2.70
2018-04-01T02:39:22.615Z,2.70
2018-04-01T02:41:49.640Z,2.70
2018-04-01T02:44:17.053Z,2.70
2018-04-01T02:46:44.091Z,2.70
2018-04-01T02:49:11.135Z,2.70
2018-04-01T02:51:38.241Z,2.70
2018-04-01T02:54:05.247Z,2.70
2018-04-01T02:56:32.283Z,2.70
2018-04-01T02:58:59.294Z,2.70
2018-04-01T03:01:26.297Z,2.70
2018-04-01T03:03:53.382Z,2.70
2018-04-01T03:06:20.498Z,2.70
2018-04-01T03:08:47.539Z,2.70
2018-04-01T03:11:14.615Z,2.70
2018-04-01T03:13:41.659Z,2.70
2018-04-01T03:16:09.075Z,2.70
2018-04-01T03:18:36.119Z,2.70
2018-04-01T03:21:03.138Z,2.70
2018-04-01T03:23:30.159Z,2.70
2018-04-01T03:25:57.192Z,2.70
2018-04-01T03:28:24.224Z,2.80
2018-04-01T03:30:51.238Z,2.70
2018-04-01T03:33:18.270Z,2.70
2018-04-01T03:35:45.300Z,2.70
2018-04-01T03:38:12.321Z,2.70
2018-04-01T03:40:39.355Z,2.70
2018-04-01T03:43:06.369Z,2.70
2018-04-01T03:45:33.415Z,2.70
2018-04-01T03:48:00.430Z,2.70
2018-04-01T03:50:27.440Z,2.70
2018-04-01T03:52:54.454Z,2.70
2018-04-01T03:55:21.476Z,2.70
2018-04-01T03:57:48.534Z,2.70
2018-04-01T04:00:15.527Z,2.70
2018-04-01T04:02:42.936Z,2.70
2018-04-01T04:05:09.947Z,2.70
2018-04-01T04:07:36.982Z,2.70
2018-04-01T04:10:04.403Z,2.70
2018-04-01T04:12:31.412Z,2.70
2018-04-01T04:14:58.427Z,2.70
2018-04-01T04:17:25.824Z,2.70
2018-04-01T04:19:52.851Z,2.70
2018-04-01T04:22:19.878Z,2.70
2018-04-01T04:24:47.299Z,2.60
2018-04-01T04:27:14.315Z,2.60
2018-04-01T04:29:41.332Z,2.60
2018-04-01T04:32:08.740Z,2.60
2018-04-01T04:34:35.779Z,2.60
2018-04-01T04:37:02.784Z,2.60
2018-04-01T04:39:29.818Z,2.60
2018-04-01T04:41:57.248Z,2.50
2018-04-01T04:44:24.256Z,2.50
2018-04-01T04:46:51.270Z,2.50
2018-04-01T04:49:18.691Z,2.40
2018-04-01T04:51:45.711Z,2.40
2018-04-01T04:54:12.717Z,2.40
2018-04-01T04:56:40.122Z,2.30
2018-04-01T04:59:07.130Z,2.30
2018-04-01T05:01:34.147Z,2.30
2018-04-01T05:04:01.152Z,2.30
2018-04-01T05:06:28.146Z,2.30
2018-04-01T05:08:55.557Z,2.30
2018-04-01T05:11:22.564Z,2.30
2018-04-01T05:13:49.574Z,2.30
2018-04-01T05:16:16.600Z,2.30
2018-04-01T05:18:43.618Z,2.20
2018-04-01T05:21:10.646Z,2.20
2018-04-01T05:23:37.655Z,2.20
2018-04-01T05:26:04.660Z,2.10
2018-04-01T05:28:31.677Z,2.10
2018-04-01T05:30:59.075Z,2.00
2018-04-01T05:33:26.091Z,2.00
2018-04-01T05:35:53.103Z,2.00
2018-04-01T05:38:20.119Z,2.00
2018-04-01T05:40:47.148Z,1.90
2018-04-01T05:43:14.184Z,1.90
2018-04-01T05:45:42.262Z,1.80
2018-04-01T05:48:10.141Z,1.80
2018-04-01T05:50:37.153Z,1.70
2018-04-01T05:53:04.745Z,1.70
2018-04-01T05:55:32.514Z,1.70
2018-04-01T05:57:59.519Z,1.70
2018-04-01T06:00:26.542Z,1.70
2018-04-01T06:02:53.945Z,1.60
2018-04-01T06:05:21.281Z,1.60
2018-04-01T06:07:48.279Z,1.50
2018-04-01T06:10:15.353Z,1.50
2018-04-01T06:12:42.779Z,1.50
2018-04-01T06:15:10.422Z,1.40
2018-04-01T06:17:38.035Z,1.40
2018-04-01T06:20:05.431Z,1.40
2018-04-01T06:22:32.439Z,1.40
2018-04-01T06:24:59.836Z,1.40
2018-04-01T06:27:26.881Z,1.40
2018-04-01T06:29:53.892Z,1.40
2018-04-01T06:32:20.900Z,1.30
2018-04-01T06:34:47.916Z,1.30
2018-04-01T06:37:14.923Z,1.30
2018-04-01T06:39:42.326Z,1.30
2018-04-01T06:42:09.333Z,1.30
2018-04-01T06:44:36.360Z,1.30
2018-04-01T06:47:03.762Z,1.30
2018-04-01T06:49:30.779Z,1.30
2018-04-01T06:51:57.809Z,1.20
2018-04-01T06:54:25.310Z,1.20
2018-04-01T06:56:52.324Z,1.20
2018-04-01T06:59:19.513Z,1.20
2018-04-01T07:01:46.613Z,1.10
2018-04-01T07:04:14.084Z,1.10
2018-04-01T07:06:41.128Z,1.10
2018-04-01T07:09:08.206Z,1.10
2018-04-01T07:11:35.248Z,1.10
2018-04-01T07:14:02.259Z,1.10
2018-04-01T07:16:29.694Z,1.20
2018-04-01T07:18:56.691Z,1.20
2018-04-01T07:21:23.690Z,1.20
2018-04-01T07:23:50.722Z,1.20
2018-04-01T07:26:17.732Z,1.20
2018-04-01T07:28:44.759Z,1.30
2018-04-01T07:31:11.773Z,1.30
2018-04-01T07:33:38.776Z,1.30
2018-04-01T07:36:05.962Z,1.40
2018-04-01T07:38:32.971Z,1.40
2018-04-01T07:40:59.999Z,1.40
2018-04-01T07:43:27.631Z,1.40
2018-04-01T07:45:55.044Z,1.50
2018-04-01T07:48:22.131Z,1.50
2018-04-01T07:50:49.243Z,1.60
2018-04-01T07:53:17.036Z,1.60
2018-04-01T07:55:44.074Z,1.60
2018-04-01T07:58:11.477Z,1.70
2018-04-01T08:00:38.559Z,1.70
2018-04-01T08:03:05.691Z,1.70
2018-04-01T08:05:32.764Z,1.70
2018-04-01T08:07:59.927Z,1.70
2018-04-01T08:10:26.894Z,1.70
2018-04-01T08:12:53.968Z,1.70
2018-04-01T08:15:21.232Z,1.80
2018-04-01T08:17:48.270Z,1.80
2018-04-01T08:20:18.726Z,1.80
2018-04-01T08:22:45.884Z,1.90
2018-04-01T08:25:12.954Z,2.00
2018-04-01T08:27:40.013Z,2.00
2018-04-01T08:30:07.165Z,2.20
2018-04-01T08:32:34.307Z,2.30
2018-04-01T08:35:01.621Z,2.30
2018-04-01T08:37:30.076Z,2.50
2018-04-01T08:39:57.317Z,2.50
2018-04-01T08:42:25.086Z,2.50
2018-04-01T08:44:52.184Z,2.60
2018-04-01T08:47:19.595Z,2.70
2018-04-01T08:49:46.619Z,2.70
2018-04-01T08:52:13.634Z,2.70
2018-04-01T08:54:40.658Z,2.80
2018-04-01T08:57:07.655Z,2.80
2018-04-01T08:59:34.713Z,2.80
2018-04-01T09:02:03.683Z,2.90
2018-04-01T09:04:30.802Z,2.90
2018-04-01T09:06:57.935Z,2.90
2018-04-01T09:09:24.975Z,2.90
2018-04-01T09:11:52.001Z,2.90
2018-04-01T09:14:19.007Z,3.00
2018-04-01T09:16:54.820Z,3.10
2018-04-01T09:19:21.832Z,3.20
2018-04-01T09:21:48.875Z,3.30
2018-04-01T09:24:15.892Z,3.30
2018-04-01T09:26:43.306Z,3.50
2018-04-01T09:29:10.315Z,3.50
2018-04-01T09:31:37.355Z,3.50
2018-04-01T09:34:04.375Z,3.60
2018-04-01T09:36:31.387Z,3.60
2018-04-01T09:38:58.420Z,3.60
2018-04-01T09:41:25.640Z,3.80
2018-04-01T09:43:53.085Z,4.20
2018-04-01T09:46:20.492Z,4.40
2018-04-01T09:48:47.559Z,4.40
2018-04-01T09:51:14.564Z,4.40
2018-04-01T09:53:41.585Z,4.50
2018-04-01T09:56:08.610Z,4.50
2018-04-01T09:58:35.618Z,4.60
2018-04-01T10:01:03.131Z,4.70
2018-04-01T10:03:31.036Z,4.90
2018-04-01T10:05:58.545Z,4.90
2018-04-01T10:08:26.051Z,4.90
2018-04-01T10:10:53.556Z,4.80
2018-04-01T10:13:21.124Z,4.80
2018-04-01T10:15:49.024Z,4.90
2018-04-01T10:18:16.506Z,4.90
2018-04-01T10:20:44.069Z,5.00
2018-04-01T10:23:11.867Z,5.00
2018-04-01T10:25:39.379Z,5.10
2018-04-01T10:28:06.915Z,5.10
2018-04-01T10:30:34.455Z,5.20
2018-04-01T10:33:02.355Z,5.00
2018-04-01T10:35:29.851Z,5.10
2018-04-01T10:37:57.366Z,5.00
2018-04-01T10:40:24.848Z,5.00
2018-04-01T10:42:52.340Z,5.00
2018-04-01T10:45:20.273Z,5.00
2018-04-01T10:47:47.777Z,5.00
2018-04-01T10:50:15.286Z,5.10
2018-04-01T10:52:43.050Z,5.30
2018-04-01T10:55:10.084Z,5.40
2018-04-01T10:57:37.095Z,5.30
2018-04-01T11:00:04.512Z,5.80
2018-04-01T11:02:31.538Z,5.80
2018-04-01T11:04:58.548Z,6.10
2018-04-01T11:07:25.568Z,6.20
2018-04-01T11:09:52.591Z,6.50
2018-04-01T11:12:19.592Z,6.90
2018-04-01T11:14:46.598Z,7.00
2018-04-01T11:17:13.626Z,7.40
2018-04-01T11:19:40.662Z,7.70
2018-04-01T11:22:07.688Z,7.90
2018-04-01T11:24:34.692Z,7.80
2018-04-01T11:27:02.123Z,7.90
2018-04-01T11:29:29.131Z,8.00
2018-04-01T11:31:56.204Z,8.00
2018-04-01T11:34:23.227Z,8.50
2018-04-01T11:36:50.271Z,8.60
2018-04-01T11:39:17.328Z,8.50
2018-04-01T11:41:44.375Z,8.30
2018-04-01T11:44:11.434Z,8.20
2018-04-01T11:46:38.503Z,7.90
2018-04-01T11:49:05.518Z,7.90
2018-04-01T11:51:32.563Z,8.00
2018-04-01T11:53:59.652Z,8.20
2018-04-01T11:56:26.664Z,8.30
2018-04-01T11:58:53.666Z,8.80
2018-04-01T12:01:20.716Z,9.30
2018-04-01T12:03:47.766Z,9.40
2018-04-01T12:06:14.785Z,9.40
2018-04-01T12:08:41.808Z,9.60
2018-04-01T12:11:08.843Z,9.80
2018-04-01T12:13:35.875Z,9.70
2018-04-01T12:16:03.051Z,9.50
2018-04-01T12:18:30.101Z,9.40
2018-04-01T12:20:58.094Z,9.40
2018-04-01T12:23:25.524Z,9.40
2018-04-01T12:25:53.067Z,9.40
2018-04-01T12:28:20.199Z,9.60
2018-04-01T12:30:47.691Z,9.90
2018-04-01T12:33:15.386Z,9.90
2018-04-01T12:35:42.397Z,10.20
2018-04-01T12:38:09.466Z,10.80
2018-04-01T12:40:36.488Z,11.20
2018-04-01T12:43:03.537Z,10.90
2018-04-01T12:45:30.596Z,10.80
2018-04-01T12:47:57.637Z,10.70
2018-04-01T12:50:25.577Z,10.60
2018-04-01T12:52:52.698Z,11.00
2018-04-01T12:55:19.739Z,11.30
2018-04-01T12:57:48.792Z,11.30
2018-04-01T13:00:15.946Z,10.80
2018-04-01T13:02:42.976Z,10.50
2018-04-01T13:05:10.979Z,10.20
2018-04-01T13:07:38.386Z,10.20
2018-04-01T13:10:05.406Z,10.20
2018-04-01T13:12:32.416Z,10.80
2018-04-01T13:14:59.427Z,11.20
2018-04-01T13:17:26.484Z,11.90
2018-04-01T13:19:53.497Z,12.40
2018-04-01T13:22:20.500Z,12.90
2018-04-01T13:24:47.521Z,13.20
2018-04-01T13:27:15.235Z,13.30
2018-04-01T13:29:42.239Z,13.20
2018-04-01T13:32:09.256Z,13.20
2018-04-01T13:34:36.315Z,13.00
2018-04-01T13:37:03.388Z,12.80
2018-04-01T13:39:30.823Z,12.30
2018-04-01T13:41:58.080Z,12.30
2018-04-01T13:44:25.091Z,11.80
2018-04-01T13:46:52.119Z,11.40
2018-04-01T13:49:19.515Z,11.00
2018-04-01T13:51:46.526Z,11.00
2018-04-01T13:54:13.532Z,10.60
2018-04-01T13:56:40.587Z,10.40
2018-04-01T13:59:07.619Z,10.30
2018-04-01T14:01:34.642Z,10.00
2018-04-01T14:04:01.639Z,9.90
2018-04-01T14:06:29.039Z,9.80
2018-04-01T14:08:56.130Z,9.80
2018-04-01T14:11:23.591Z,9.80
2018-04-01T14:13:50.597Z,9.80
2018-04-01T14:16:17.671Z,9.70
2018-04-01T14:18:45.111Z,9.60
2018-04-01T14:21:12.116Z,9.60
2018-04-01T14:23:39.132Z,9.70
2018-04-01T14:26:06.531Z,9.80
2018-04-01T14:28:33.548Z,9.80
2018-04-01T14:31:00.944Z,10.90
2018-04-01T14:33:31.819Z,10.90
2018-04-01T14:35:58.838Z,11.20
2018-04-01T14:38:25.856Z,11.50
2018-04-01T14:40:52.864Z,11.60
2018-04-01T14:43:20.878Z,11.80
2018-04-01T14:45:47.896Z,12.20
2018-04-01T14:48:14.918Z,12.50
2018-04-01T14:50:41.919Z,13.20
2018-04-01T14:53:08.932Z,13.40
2018-04-01T14:55:35.944Z,13.00
2018-04-01T14:58:02.959Z,13.20
2018-04-01T15:00:30.008Z,13.50
2018-04-01T15:02:57.077Z,13.60
2018-04-01T15:05:24.076Z,14.00
2018-04-01T15:07:51.099Z,14.20
2018-04-01T15:10:18.512Z,14.60
2018-04-01T15:12:45.528Z,14.60
2018-04-01T15:15:12.540Z,14.90
2018-04-01T15:17:39.975Z,13.50
2018-04-01T15:20:07.028Z,13.50
2018-04-01T15:22:34.268Z,13.30
2018-04-01T15:25:01.287Z,13.30
2018-04-01T15:27:32.098Z,13.50
2018-04-01T15:29:59.115Z,13.20
2018-04-01T15:32:26.119Z,12.80
2018-04-01T15:34:53.134Z,12.60
2018-04-01T15:37:20.148Z,12.20
2018-04-01T15:39:47.159Z,11.70
2018-04-01T15:42:14.168Z,11.00
2018-04-01T15:44:41.182Z,10.90
2018-04-01T15:47:09.072Z,10.90
2018-04-01T15:49:36.092Z,11.00
2018-04-01T15:52:03.157Z,10.60
2018-04-01T15:54:30.130Z,10.20
2018-04-01T15:56:57.160Z,10.00
2018-04-01T15:59:24.548Z,9.50
2018-04-01T16:01:51.553Z,9.50
2018-04-01T16:04:18.559Z,9.40
2018-04-01T16:06:45.559Z,9.40
2018-04-01T16:09:12.617Z,9.40
2018-04-01T16:11:39.611Z,9.40
2018-04-01T16:14:06.616Z,9.20
2018-04-01T16:16:33.620Z,9.00
2018-04-01T16:19:00.674Z,8.70
2018-04-01T16:21:27.639Z,8.50
2018-04-01T16:23:54.655Z,8.40
2018-04-01T16:26:21.657Z,8.10
2018-04-01T16:28:48.659Z,7.90
2018-04-01T16:31:15.675Z,7.80
2018-04-01T16:33:42.677Z,7.60
2018-04-01T16:36:09.703Z,7.50
2018-04-01T16:38:37.095Z,7.30
2018-04-01T16:41:04.091Z,7.30
2018-04-01T16:43:31.519Z,7.10
2018-04-01T16:45:58.526Z,7.10
2018-04-01T16:48:25.535Z,7.10
2018-04-01T16:50:52.976Z,6.90
2018-04-01T16:53:19.974Z,6.90
2018-04-01T16:55:47.000Z,6.90
2018-04-01T16:58:14.143Z,6.80
2018-04-01T17:00:41.538Z,6.60
2018-04-01T17:03:08.590Z,6.60
2018-04-01T17:05:37.019Z,6.50
2018-04-01T17:08:04.105Z,6.50
2018-04-01T17:10:31.124Z,6.50
2018-04-01T17:12:58.156Z,6.30
2018-04-01T17:15:25.553Z,6.30
2018-04-01T17:17:52.567Z,6.30
2018-04-01T17:20:19.570Z,6.20
2018-04-01T17:22:46.602Z,6.20
2018-04-01T17:25:13.841Z,6.20
2018-04-01T17:27:41.754Z,6.20
2018-04-01T17:30:08.776Z,6.10
2018-04-01T17:32:35.773Z,6.10
2018-04-01T17:35:02.768Z,6.10
2018-04-01T17:37:32.281Z,6.10
2018-04-01T17:39:59.312Z,6.00
2018-04-01T17:42:26.324Z,6.00
2018-04-01T17:44:53.351Z,6.00
2018-04-01T17:47:21.231Z,6.00
2018-04-01T17:49:48.233Z,5.90
2018-04-01T17:52:15.396Z,5.90
2018-04-01T17:54:42.376Z,5.80
2018-04-01T17:57:09.393Z,5.80
2018-04-01T17:59:36.786Z,5.70
2018-04-01T18:02:03.803Z,5.70
2018-04-01T18:04:31.197Z,5.70
2018-04-01T18:06:58.197Z,5.70
2018-04-01T18:09:25.699Z,5.70
2018-04-01T18:11:52.708Z,5.70
2018-04-01T18:14:20.780Z,5.70
2018-04-01T18:16:48.684Z,5.70
2018-04-01T18:19:16.610Z,5.70
2018-04-01T18:21:44.890Z,5.60
2018-04-01T18:24:12.816Z,5.60
2018-04-01T18:26:40.717Z,5.60
2018-04-01T18:29:08.696Z,5.60
2018-04-01T18:31:36.246Z,5.60
2018-04-01T18:34:04.241Z,5.60
2018-04-01T18:36:31.832Z,5.60
2018-04-01T18:38:59.293Z,5.60
2018-04-01T18:41:26.731Z,5.60
2018-04-01T18:43:53.741Z,5.60
2018-04-01T18:46:20.882Z,5.60
2018-04-01T18:48:48.317Z,5.50
2018-04-01T18:51:15.808Z,5.50
2018-04-01T18:53:42.809Z,5.40
2018-04-01T18:56:09.833Z,5.40
2018-04-01T18:58:36.878Z,5.30
2018-04-01T19:01:04.046Z,5.20
2018-04-01T19:03:31.163Z,5.20
2018-04-01T19:05:58.168Z,5.20
2018-04-01T19:08:25.576Z,5.10
2018-04-01T19:10:52.565Z,5.20
2018-04-01T19:13:19.579Z,5.10
2018-04-01T19:15:46.581Z,5.10
2018-04-01T19:18:14.880Z,5.10
2018-04-01T19:20:43.241Z,5.00
2018-04-01T19:23:10.743Z,5.00
2018-04-01T19:25:38.249Z,4.90
2018-04-01T19:28:05.776Z,4.90
2018-04-01T19:30:33.290Z,4.90
2018-04-01T19:33:00.847Z,4.90
2018-04-01T19:35:28.871Z,4.90
2018-04-01T19:37:56.763Z,5.00
2018-04-01T19:40:24.262Z,4.90
2018-04-01T19:42:51.773Z,4.90
2018-04-01T19:45:19.330Z,5.00
2018-04-01T19:47:47.023Z,5.00
2018-04-01T19:50:14.516Z,5.00
2018-04-01T19:52:42.017Z,5.00
2018-04-01T19:55:09.575Z,5.00
2018-04-01T19:57:37.076Z,5.00
2018-04-01T20:00:04.570Z,5.00
2018-04-01T20:02:32.467Z,5.00
2018-04-01T20:04:59.963Z,5.00
2018-04-01T20:07:27.479Z,5.00
2018-04-01T20:09:54.977Z,5.00
2018-04-01T20:12:22.478Z,5.00
2018-04-01T20:14:49.990Z,5.00
2018-04-01T20:17:17.479Z,5.00
2018-04-01T20:19:45.369Z,5.00
2018-04-01T20:22:12.915Z,5.00
2018-04-01T20:24:40.413Z,5.00
2018-04-01T20:27:07.895Z,5.00
2018-04-01T20:29:35.417Z,5.00
2018-04-01T20:32:02.919Z,5.00
2018-04-01T20:34:30.819Z,5.00
2018-04-01T20:36:58.322Z,5.00
2018-04-01T20:39:25.819Z,5.00
2018-04-01T20:41:53.352Z,5.00
2018-04-01T20:44:20.851Z,5.00
2018-04-01T20:46:48.347Z,5.00
2018-04-01T20:49:15.855Z,5.00
2018-04-01T20:51:43.363Z,5.00
2018-04-01T20:54:10.851Z,5.00
2018-04-01T20:56:38.355Z,5.00
2018-04-01T20:59:05.855Z,5.00
2018-04-01T21:01:33.351Z,5.00
2018-04-01T21:04:00.868Z,5.00
2018-04-01T21:06:28.420Z,5.00
2018-04-01T21:08:55.932Z,5.00
2018-04-01T21:11:23.428Z,5.00
2018-04-01T21:13:50.943Z,5.00
2018-04-01T21:16:18.451Z,5.00
2018-04-01T21:18:46.356Z,5.00
2018-04-01T21:21:13.854Z,5.00
2018-04-01T21:23:41.342Z,5.00
2018-04-01T21:26:08.867Z,4.90
2018-04-01T21:28:36.367Z,4.90
2018-04-01T21:31:04.282Z,4.90
2018-04-01T21:33:31.784Z,4.90
2018-04-01T21:35:59.291Z,4.90
2018-04-01T21:38:26.792Z,4.90
2018-04-01T21:40:54.291Z,4.90
2018-04-01T21:43:21.810Z,4.90
2018-04-01T21:45:49.352Z,4.90
2018-04-01T21:48:16.868Z,4.90
2018-04-01T21:50:44.400Z,4.90
2018-04-01T21:53:12.315Z,4.90
2018-04-01T21:55:39.829Z,4.90
2018-04-01T21:58:07.723Z,4.90
2018-04-01T22:00:35.231Z,4.90
2018-04-01T22:03:02.747Z,4.90
2018-04-01T22:05:30.254Z,4.90
2018-04-01T22:07:58.172Z,4.90
2018-04-01T22:10:25.695Z,4.90
2018-04-01T22:12:53.597Z,4.90
2018-04-01T22:15:21.109Z,4.90
2018-04-01T22:17:48.996Z,4.90
2018-04-01T22:20:16.487Z,4.90
2018-04-01T22:22:55.728Z,4.90
2018-04-01T22:25:23.243Z,4.90
2018-04-01T22:27:50.747Z,4.90
2018-04-01T22:30:18.235Z,4.90
2018-04-01T22:32:46.127Z,4.90
2018-04-01T22:35:13.631Z,4.90
2018-04-01T22:37:41.119Z,4.90
2018-04-01T22:40:09.022Z,4.90
2018-04-01T22:42:36.503Z,4.90
2018-04-01T22:45:04.024Z,4.90
2018-04-01T22:47:31.543Z,4.80
2018-04-01T22:49:59.037Z,4.80
2018-04-01T22:52:26.527Z,4.80
2018-04-01T22:54:54.054Z,4.80
2018-04-01T22:57:21.551Z,4.80
2018-04-01T22:59:49.040Z,4.80
2018-04-01T23:02:16.596Z,4.70
2018-04-01T23:04:44.490Z,4.70
2018-04-01T23:07:11.999Z,4.70
2018-04-01T23:09:39.508Z,4.70
2018-04-01T23:12:07.020Z,4.70
2018-04-01T23:14:34.511Z,4.70
2018-04-01T23:17:02.008Z,4.60
2018-04-01T23:19:29.536Z,4.70
2018-04-01T23:21:57.024Z,4.70
2018-04-01T23:24:24.548Z,4.60
2018-04-01T23:26:52.039Z,4.60
2018-04-01T23:29:19.520Z,4.60
2018-04-01T23:31:47.028Z,4.60
2018-04-01T23:34:14.536Z,4.60
2018-04-01T23:36:42.027Z,4.60
2018-04-01T23:39:09.596Z,4.60
2018-04-01T23:41:37.099Z,4.60
2018-04-01T23:44:04.584Z,4.60
2018-04-01T23:46:32.491Z,4.60
2018-04-01T23:49:04.897Z,4.60
2018-04-01T23:51:32.415Z,4.60
2018-04-01T23:53:59.915Z,4.50
2018-04-01T23:56:27.454Z,4.50
2018-04-01T23:58:54.957Z,4.50
